Time;durP1;ratioP1;P1;durP2;ratioP2;P2;SDS_P1;SDS_P2;PMS_P1;PMS_P2;Temp;Humidity;BMP_temperature;BMP_pressure;BME280_temperature;BME280_humidity;BME280_pressure;Samples;Min_cycle;Max_cycle;Signal;HPM_P1;HPM_P2
2021/05/26 00:01:36;;;;;;;0.55;0.15;;;9.50;99.90;;;8.90;94.30;101114.94;4985645;28;20031;-53
2021/05/26 00:04:02;;;;;;;1.02;0.20;;;9.50;99.90;;;8.93;94.19;101121.66;4985883;28;20042;-53
2021/05/26 00:06:28;;;;;;;2.25;0.20;;;9.50;99.90;;;8.88;94.30;101116.81;4987053;28;20105;-46
2021/05/26 00:08:54;;;;;;;1.52;0.17;;;9.50;99.90;;;8.88;94.45;101124.63;4985843;28;20042;-50
2021/05/26 00:11:20;;;;;;;0.30;0.10;;;9.50;99.90;;;8.87;94.85;101115.16;4983388;28;20044;-52
2021/05/26 00:13:47;;;;;;;0.88;0.10;;;9.50;99.90;;;8.93;94.61;101117.28;4985802;28;20096;-50
2021/05/26 00:16:14;;;;;;;2.42;0.10;;;9.50;99.90;;;8.98;93.70;101112.53;4985702;28;20539;-54
2021/05/26 00:18:40;;;;;;;2.05;0.20;;;9.60;99.90;;;9.00;94.04;101107.22;4986649;28;20039;-54
2021/05/26 00:21:09;;;;;;;0.50;0.10;;;9.60;99.90;;;9.05;93.29;101104.28;4986419;28;20492;-54
2021/05/26 00:23:38;;;;;;;3.80;0.20;;;9.60;99.90;;;9.05;93.72;101107.69;4985937;28;20434;-54
2021/05/26 00:26:05;;;;;;;1.35;0.82;;;9.70;99.90;;;8.97;93.62;101105.72;4984263;28;20117;-51
2021/05/26 00:28:31;;;;;;;0.90;0.20;;;9.60;99.90;;;8.98;94.05;101098.72;4985741;28;20126;-49
2021/05/26 00:30:59;;;;;;;2.72;0.20;;;9.60;99.90;;;8.91;94.00;101089.78;4986802;28;20045;-51
2021/05/26 00:33:25;;;;;;;0.75;0.57;;;9.60;99.90;;;8.87;94.12;101089.19;4980962;28;20030;-57
2021/05/26 00:35:51;;;;;;;0.20;0.10;;;9.50;99.90;;;8.89;93.81;101087.28;4985594;28;20049;-55
2021/05/26 00:38:18;;;;;;;0.50;0.10;;;9.50;99.90;;;8.91;93.93;101085.41;4984771;28;20517;-53
2021/05/26 00:40:44;;;;;;;0.20;0.10;;;9.50;99.90;;;8.92;93.51;101084.44;4985008;28;20110;-56
2021/05/26 00:43:11;;;;;;;1.23;0.10;;;9.50;99.90;;;8.91;92.99;101080.19;4984932;28;20084;-50
2021/05/26 00:45:37;;;;;;;0.90;0.13;;;9.60;99.90;;;8.94;93.34;101082.56;4983863;28;20451;-53
2021/05/26 00:48:04;;;;;;;1.55;0.20;;;9.50;99.90;;;9.01;93.17;101085.50;4984025;28;20046;-51
2021/05/26 00:50:34;;;;;;;0.30;0.10;;;9.60;99.90;;;9.01;93.30;101084.66;4985652;28;20079;-57
2021/05/26 00:53:07;;;;;;;0.63;0.10;;;9.60;99.90;;;9.08;93.30;101078.03;4986688;28;20069;-49
2021/05/26 00:55:34;;;;;;;0.60;0.10;;;9.60;99.90;;;9.08;92.98;101067.66;4956800;28;20041;-52
2021/05/26 00:58:02;;;;;;;0.10;0.10;;;9.70;99.90;;;9.67;88.59;101068.09;4984750;28;20026;-56
2021/05/26 01:00:32;;;;;;;1.00;0.03;;;9.90;99.90;;;10.29;84.39;101068.16;4989639;28;20045;-59
2021/05/26 01:02:58;;;;;;;1.30;0.00;;;10.50;99.90;;;10.48;82.88;101064.81;4987471;28;20039;-54
2021/05/26 01:05:26;;;;;;;1.95;0.10;;;10.80;99.90;;;10.40;84.17;101071.66;4989650;28;20062;-54
2021/05/26 01:07:53;;;;;;;1.05;0.00;;;10.90;99.90;;;10.02;86.37;101073.00;4988819;28;20506;-57
2021/05/26 01:10:22;;;;;;;0.60;0.10;;;10.70;99.90;;;9.91;86.63;101075.69;4989717;28;20074;-48
2021/05/26 01:12:49;;;;;;;1.30;0.10;;;10.50;99.90;;;9.60;88.14;101065.16;4989212;28;20115;-53
2021/05/26 01:15:17;;;;;;;0.77;0.20;;;10.30;99.90;;;9.47;89.12;101066.25;4989430;28;20044;-54
2021/05/26 01:17:44;;;;;;;1.35;0.10;;;10.10;99.90;;;9.28;90.34;101061.72;4987824;28;20050;-51
2021/05/26 01:20:27;;;;;;;1.02;0.20;;;10.00;99.90;;;9.17;90.90;101061.72;4985780;28;20356;-53
2021/05/26 01:22:54;;;;;;;0.57;0.10;;;9.80;99.90;;;9.15;91.09;101055.81;4984241;28;20045;-53
2021/05/26 01:25:20;;;;;;;0.52;0.10;;;9.80;99.90;;;9.13;91.02;101048.13;4988156;28;20035;-48
2021/05/26 01:27:47;;;;;;;1.13;0.15;;;9.80;99.90;;;9.24;90.13;101049.91;4988212;28;20043;-55
2021/05/26 01:30:14;;;;;;;1.58;0.10;;;9.80;99.90;;;9.21;90.54;101047.53;4987488;28;20034;-50
2021/05/26 01:32:51;;;;;;;0.50;0.10;;;9.80;99.90;;;9.25;89.90;101047.19;4988332;28;20121;-48
2021/05/26 01:35:17;;;;;;;0.75;0.17;;;9.80;99.90;;;9.22;89.75;101041.38;4987846;28;20077;-53
2021/05/26 01:37:46;;;;;;;0.57;0.10;;;9.80;99.90;;;9.40;88.78;101037.34;4989548;28;20026;-56
2021/05/26 01:40:17;;;;;;;1.80;0.10;;;9.90;99.90;;;9.28;89.51;101035.72;4988510;28;20082;-47
2021/05/26 01:42:44;;;;;;;1.15;0.10;;;9.90;99.90;;;9.24;89.78;101039.50;4976910;28;20041;-47
2021/05/26 01:45:12;;;;;;;2.42;0.17;;;9.80;99.90;;;9.58;87.50;101040.22;4984391;28;20043;-54
2021/05/26 01:47:38;;;;;;;3.22;0.10;;;10.00;99.90;;;9.65;87.04;101038.75;4988578;28;20070;-52
2021/05/26 01:50:19;;;;;;;1.40;0.10;;;10.10;99.90;;;9.46;88.09;101034.22;4988281;28;20111;-53
2021/05/26 01:52:58;;;;;;;0.40;0.10;;;10.00;99.90;;;9.23;89.41;101038.66;4989290;28;20045;-55
2021/05/26 01:55:23;;;;;;;0.43;0.20;;;9.90;99.90;;;9.15;90.18;101046.25;4987874;28;20404;-56
2021/05/26 01:57:49;;;;;;;1.15;0.28;;;9.80;99.90;;;9.08;90.93;101046.84;4989030;28;20034;-56
2021/05/26 02:00:18;;;;;;;0.55;0.13;;;9.70;99.90;;;9.05;91.12;101049.69;4962500;28;20501;-51
2021/05/26 02:02:45;;;;;;;3.67;0.17;;;9.60;99.90;;;9.03;91.02;101046.38;4988774;28;20027;-49
2021/05/26 02:05:12;;;;;;;1.13;0.20;;;9.60;99.90;;;9.11;91.32;101044.00;4987116;28;20055;-53
2021/05/26 02:07:38;;;;;;;0.32;0.10;;;9.60;99.90;;;9.17;91.72;101046.13;4970805;28;20101;-57
2021/05/26 02:10:09;;;;;;;3.13;0.10;;;9.70;99.90;;;9.19;91.78;101047.66;4987833;28;20030;-51
2021/05/26 02:12:42;;;;;;;1.23;0.10;;;9.70;99.90;;;9.15;92.29;101040.22;4958908;28;20049;-53
2021/05/26 02:15:13;;;;;;;1.42;0.20;;;9.70;99.90;;;9.15;91.78;101041.03;4987917;28;20515;-53
2021/05/26 02:17:39;;;;;;;3.38;0.20;;;9.70;99.90;;;9.09;92.25;101038.94;4986101;28;20046;-48
2021/05/26 02:20:09;;;;;;;0.57;0.10;;;9.70;99.90;;;9.08;92.14;101028.66;4987805;28;20050;-49
2021/05/26 02:22:35;;;;;;;1.92;0.10;;;9.60;99.90;;;9.11;92.07;101038.81;4989175;28;20314;-49
2021/05/26 02:25:03;;;;;;;0.40;0.17;;;9.70;99.90;;;9.11;92.36;101033.59;4987429;28;20124;-51
2021/05/26 02:27:29;;;;;;;1.75;0.20;;;9.70;99.90;;;9.05;92.18;101028.88;4988720;28;20053;-55
2021/05/26 02:29:55;;;;;;;0.65;0.10;;;9.70;99.90;;;9.07;92.46;101024.41;4987590;28;20084;-57
2021/05/26 02:32:22;;;;;;;2.65;0.10;;;9.60;99.90;;;9.14;91.84;101023.78;4988676;28;20030;-55
2021/05/26 02:34:48;;;;;;;0.68;0.10;;;9.70;99.90;;;9.13;91.99;101026.50;4988763;28;20109;-54
2021/05/26 02:37:14;;;;;;;1.85;0.10;;;9.70;99.90;;;9.07;92.15;101025.22;4987245;28;20433;-49
2021/05/26 02:39:40;;;;;;;0.20;0.13;;;9.70;99.90;;;9.11;91.54;101029.25;4988605;28;20061;-50
2021/05/26 02:42:06;;;;;;;1.50;0.30;;;9.70;99.90;;;9.26;90.14;101011.59;4986882;28;20046;-53
2021/05/26 02:44:32;;;;;;;1.60;0.20;;;9.70;99.90;;;9.89;85.98;101010.75;4988254;28;20605;-54
2021/05/26 02:46:58;;;;;;;1.30;0.20;;;10.10;99.90;;;9.92;85.46;101007.06;4987208;28;20077;-50
2021/05/26 02:49:23;;;;;;;1.38;0.10;;;10.40;99.90;;;9.72;86.95;101010.47;4988255;28;20096;-57
2021/05/26 02:51:50;;;;;;;1.17;0.17;;;10.30;99.90;;;9.52;88.09;101009.47;4987007;28;20080;-52
2021/05/26 02:54:16;;;;;;;2.25;0.20;;;10.20;99.90;;;9.37;89.32;101003.78;4987882;28;20124;-56
2021/05/26 02:56:42;;;;;;;0.30;0.10;;;10.00;99.90;;;9.24;90.05;101008.28;4985275;28;20541;-48
2021/05/26 02:59:08;;;;;;;0.30;0.10;;;9.90;99.90;;;9.26;89.90;101003.81;4988156;28;20042;-56
2021/05/26 03:01:35;;;;;;;0.40;0.10;;;9.80;99.90;;;9.21;90.10;101005.94;5085925;23;21342;-48
2021/05/26 03:04:03;;;;;;;2.25;0.10;;;9.80;99.90;;;9.06;90.66;101002.78;4954533;28;20582;-56
2021/05/26 03:06:29;;;;;;;0.47;0.13;;;9.70;99.90;;;9.04;90.50;101001.25;4967935;28;20545;-50
2021/05/26 03:08:55;;;;;;;1.05;0.20;;;9.60;99.90;;;9.02;90.47;101000.53;4968321;28;20195;-51
2021/05/26 03:11:21;;;;;;;1.35;0.10;;;9.60;99.90;;;9.09;89.90;100993.91;4968982;28;20142;-55
2021/05/26 03:13:47;;;;;;;2.38;0.63;;;9.70;99.90;;;9.01;90.71;100997.13;4968143;28;20034;-51
2021/05/26 03:16:13;;;;;;;0.98;0.20;;;9.60;99.90;;;8.90;91.20;100998.00;4968458;28;20556;-54
2021/05/26 03:18:40;;;;;;;1.05;0.30;;;9.50;99.90;;;8.81;91.99;101006.50;4968061;28;20125;-54
2021/05/26 03:21:07;;;;;;;3.72;0.38;;;9.50;99.90;;;8.77;91.80;101002.47;4967713;28;20035;-51
2021/05/26 03:23:33;;;;;;;1.70;0.30;;;9.40;99.90;;;8.70;92.27;100995.28;4968277;28;20122;-57
2021/05/26 03:25:59;;;;;;;2.40;0.20;;;9.30;99.90;;;8.72;92.20;100996.81;4967530;28;20562;-48
2021/05/26 03:28:25;;;;;;;0.40;0.20;;;9.30;99.90;;;8.75;92.63;100987.97;4968419;28;20050;-53
2021/05/26 03:30:50;;;;;;;3.25;0.13;;;9.30;99.90;;;8.77;92.39;100989.50;4967903;28;20105;-52
2021/05/26 03:33:18;;;;;;;3.25;0.20;;;9.40;99.90;;;8.84;92.28;100989.84;4968222;28;20035;-53
2021/05/26 03:35:44;;;;;;;0.60;0.20;;;9.40;99.90;;;8.88;92.60;100992.09;4968395;28;20057;-56
2021/05/26 03:38:11;;;;;;;0.25;0.10;;;9.50;99.90;;;8.96;92.13;100989.72;4967920;28;20206;-56
2021/05/26 03:40:38;;;;;;;1.35;0.10;;;9.50;99.90;;;9.22;90.37;100986.78;4968036;28;20077;-51
2021/05/26 03:43:05;;;;;;;4.55;0.10;;;9.70;99.90;;;9.25;90.11;100994.34;4967717;28;20066;-54
2021/05/26 03:45:32;;;;;;;0.75;0.10;;;9.80;99.90;;;9.58;87.55;100996.81;4968178;28;20474;-57
2021/05/26 03:47:58;;;;;;;0.10;0.00;;;10.10;99.90;;;10.12;83.95;101000.19;4968277;28;20038;-51
2021/05/26 03:50:27;;;;;;;1.10;0.10;;;10.40;99.90;;;10.04;84.84;100998.22;4967644;28;20122;-52
2021/05/26 03:52:54;;;;;;;0.95;0.10;;;10.60;99.90;;;9.88;86.21;101003.06;4968162;28;20097;-49
2021/05/26 03:55:22;;;;;;;3.17;0.40;;;10.60;99.90;;;9.65;87.24;101003.16;4967705;28;20035;-52
2021/05/26 03:57:48;;;;;;;2.90;0.30;;;10.40;99.90;;;9.70;87.38;101014.97;4968050;28;20089;-51
2021/05/26 04:00:20;;;;;;;3.45;0.40;;;10.40;99.90;;;9.75;87.41;101010.22;4967922;28;20042;-54
2021/05/26 04:02:48;;;;;;;2.47;0.63;;;10.40;99.90;;;9.89;87.10;101007.31;4967310;28;20055;-55
2021/05/26 04:05:15;;;;;;;4.07;0.40;;;10.50;99.90;;;10.23;87.17;101013.16;4968179;28;20058;-54
2021/05/26 04:07:41;;;;;;;2.25;0.40;;;10.80;99.90;;;11.77;84.54;101007.50;4967802;28;20045;-51
2021/05/26 04:10:08;;;;;;;3.03;0.30;;;12.50;99.90;;;13.22;79.11;101015.63;4950696;28;20118;-55
2021/05/26 04:12:34;;;;;;;1.77;0.32;;;14.40;99.90;;;14.24;75.56;101011.50;4967693;28;20144;-53
2021/05/26 04:15:00;;;;;;;3.67;0.50;;;15.90;99.90;;;15.38;71.71;101014.53;4968013;28;20125;-49
2021/05/26 04:17:26;;;;;;;0.70;0.50;;;17.50;99.90;;;16.61;67.95;101008.16;4967945;28;20105;-54
2021/05/26 04:19:52;;;;;;;1.70;0.30;;;18.80;98.50;;;17.48;64.92;101006.22;4949919;28;20175;-55
2021/05/26 04:22:18;;;;;;;1.13;0.30;;;20.00;92.70;;;18.17;62.88;101005.09;4968030;28;20035;-53
2021/05/26 04:24:46;;;;;;;1.25;0.30;;;21.00;89.20;;;18.84;61.21;101012.94;4967220;28;20034;-51
2021/05/26 04:27:12;;;;;;;1.50;0.25;;;21.80;83.20;;;19.44;59.43;101009.06;4967556;28;20066;-55
2021/05/26 04:29:37;;;;;;;0.50;0.10;;;22.50;77.90;;;19.79;56.99;101006.56;4967550;28;20047;-54
2021/05/26 04:32:05;;;;;;;1.33;0.22;;;23.10;71.40;;;20.51;54.75;100995.63;4967261;28;20569;-54
2021/05/26 04:34:31;;;;;;;1.45;0.10;;;23.80;67.60;;;20.57;53.34;100994.84;4971364;28;20118;-54
2021/05/26 04:36:58;;;;;;;0.63;0.10;;;24.00;63.40;;;20.97;51.31;100994.97;4971077;28;20042;-52
2021/05/26 04:39:24;;;;;;;1.83;0.10;;;24.40;61.30;;;21.59;50.03;100991.22;4971512;28;20423;-51
2021/05/26 04:41:50;;;;;;;1.48;0.10;;;25.00;59.30;;;22.00;48.87;100997.13;4971090;28;20122;-57
2021/05/26 04:44:16;;;;;;;2.30;0.10;;;25.60;57.70;;;22.33;47.56;100991.75;4970835;28;20035;-56
2021/05/26 04:46:42;;;;;;;0.38;0.10;;;26.00;55.20;;;22.51;47.06;100993.75;4971190;28;20038;-50
2021/05/26 04:49:08;;;;;;;3.28;0.10;;;26.20;54.60;;;22.65;46.92;100989.19;4970955;28;20125;-55
2021/05/26 04:51:33;;;;;;;2.05;0.20;;;26.40;54.50;;;22.88;46.88;100992.16;4971137;28;20534;-54
2021/05/26 04:53:59;;;;;;;0.93;0.10;;;26.60;54.40;;;22.79;46.23;100985.47;4971039;28;20038;-50
2021/05/26 04:56:25;;;;;;;0.45;0.10;;;26.80;53.20;;;22.50;45.18;100992.13;4970542;28;20061;-58
2021/05/26 04:58:51;;;;;;;0.75;0.10;;;26.60;50.70;;;22.52;44.86;100992.72;4970824;28;20350;-51
2021/05/26 05:01:17;;;;;;;1.90;0.30;;;26.50;51.30;;;22.77;45.23;100995.44;4970426;28;20039;-54
2021/05/26 05:03:43;;;;;;;2.72;0.10;;;26.60;52.40;;;22.57;45.86;100992.91;4971155;28;20457;-52
2021/05/26 05:06:09;;;;;;;1.25;0.30;;;26.70;51.60;;;22.79;44.12;100991.59;4971000;28;20505;-52
2021/05/26 05:08:35;;;;;;;1.60;0.10;;;26.80;51.10;;;23.42;43.28;100988.13;4970091;28;20110;-49
2021/05/26 05:11:01;;;;;;;0.63;0.00;;;27.40;50.10;;;23.68;38.84;100979.97;4970749;28;20070;-51
2021/05/26 05:13:27;;;;;;;1.75;0.10;;;28.10;47.00;;;23.45;41.22;100975.22;4970345;28;20442;-59
2021/05/26 05:15:53;;;;;;;0.55;0.00;;;27.70;47.80;;;24.02;40.83;100981.28;4970457;28;20039;-52
2021/05/26 05:18:19;;;;;;;0.70;0.00;;;28.00;47.80;;;23.75;39.44;100974.59;4970729;28;20034;-57
2021/05/26 05:20:45;;;;;;;40.42;24.50;;;28.10;45.80;;;23.55;39.51;100984.59;4970049;28;20081;-55
2021/05/26 05:23:11;;;;;;;30.00;19.77;;;27.60;45.60;;;23.93;39.07;100981.78;4970562;28;20081;-55
2021/05/26 05:25:37;;;;;;;7.05;3.80;;;27.90;46.40;;;24.27;38.54;100973.25;4970377;28;20441;-51
2021/05/26 05:28:05;;;;;;;2.78;0.73;;;28.40;45.70;;;25.06;37.36;100972.25;4970347;28;20039;-54
2021/05/26 05:30:31;;;;;;;3.55;0.43;;;29.10;44.70;;;24.62;37.73;100976.09;4953123;28;20041;-52
2021/05/26 05:32:57;;;;;;;2.70;0.10;;;29.00;44.50;;;24.28;37.58;100980.22;4969766;28;20047;-53
2021/05/26 05:35:23;;;;;;;1.00;0.20;;;28.70;42.40;;;24.51;38.12;100962.75;4970601;28;20195;-52
2021/05/26 05:37:49;;;;;;;0.30;0.10;;;28.70;44.60;;;24.93;38.36;100980.41;4969889;28;20402;-52
2021/05/26 05:40:15;;;;;;;2.28;0.10;;;29.50;43.80;;;24.21;37.30;100976.78;4970259;28;20458;-52
2021/05/26 05:42:41;;;;;;;1.50;0.20;;;29.30;41.70;;;24.53;37.10;100979.31;4970161;28;20039;-55
2021/05/26 05:45:08;;;;;;;0.55;0.28;;;28.80;43.40;;;25.58;36.56;100979.63;4969393;28;20034;-50
2021/05/26 05:47:35;;;;;;;3.60;0.10;;;29.90;43.10;;;26.06;35.84;100976.75;4970329;28;20031;-54
2021/05/26 05:50:05;;;;;;;0.25;0.10;;;30.60;42.20;;;26.61;34.25;100974.44;4969642;28;20368;-53
2021/05/26 05:52:31;;;;;;;0.55;0.00;;;31.20;41.50;;;26.57;33.68;100978.63;4969773;28;20026;-54
2021/05/26 05:54:57;;;;;;;0.38;0.10;;;31.60;40.40;;;26.21;34.46;100976.28;4970063;28;20134;-52
2021/05/26 05:57:23;;;;;;;0.30;0.00;;;31.20;40.60;;;26.54;34.69;100980.97;4969659;28;20054;-50
2021/05/26 05:59:48;;;;;;;0.40;0.10;;;31.40;40.80;;;26.17;35.65;100975.94;4969720;28;20034;-56
2021/05/26 06:02:14;;;;;;;2.05;0.10;;;31.10;41.40;;;26.50;34.30;100977.97;4969022;28;20506;-50
2021/05/26 06:04:40;;;;;;;0.43;0.00;;;31.40;40.50;;;27.02;33.90;100975.22;4969479;28;20045;-56
2021/05/26 06:07:06;;;;;;;0.35;0.05;;;32.00;40.00;;;27.15;33.42;100980.25;4968941;28;20332;-51
2021/05/26 06:09:32;;;;;;;1.35;0.30;;;32.50;39.20;;;26.99;33.29;100975.69;4961761;28;20368;-52
2021/05/26 06:11:58;;;;;;;1.75;0.00;;;32.40;38.70;;;26.99;34.21;100981.03;4969307;28;20043;-48
2021/05/26 06:14:23;;;;;;;1.67;0.00;;;32.40;39.60;;;26.92;34.45;100975.03;4969201;28;20054;-53
2021/05/26 06:16:49;;;;;;;0.52;0.22;;;32.40;39.50;;;27.03;33.71;100980.31;4969511;28;20467;-49
2021/05/26 06:19:15;;;;;;;0.52;0.10;;;32.50;38.90;;;26.89;32.92;100976.31;4968684;28;20533;-58
2021/05/26 06:21:41;;;;;;;0.30;0.10;;;32.70;37.90;;;27.04;33.31;100973.13;4951571;28;20050;-64
2021/05/26 06:24:08;;;;;;;1.08;0.05;;;32.50;38.60;;;27.25;33.03;100977.75;4935931;28;20031;-41
2021/05/26 06:26:35;;;;;;;0.20;0.10;;;32.80;38.40;;;27.76;32.32;100975.91;4968590;28;20518;-56
2021/05/26 06:29:03;;;;;;;1.15;0.00;;;33.20;38.00;;;27.77;31.57;100980.22;4969625;28;20529;-60
2021/05/26 06:31:30;;;;;;;0.88;0.03;;;33.40;37.30;;;27.67;31.62;100967.47;4969031;28;20109;-53
2021/05/26 06:33:56;;;;;;;1.45;0.00;;;33.50;37.10;;;27.57;32.55;100974.50;4969173;28;20115;-53
2021/05/26 06:36:23;;;;;;;0.22;0.00;;;33.30;37.60;;;27.84;32.23;100975.50;4968452;28;20034;-53
2021/05/26 06:38:49;;;;;;;3.38;0.08;;;33.40;37.50;;;28.05;32.07;100972.03;4969451;28;20114;-60
2021/05/26 06:41:15;;;;;;;0.73;0.00;;;33.50;38.00;;;27.89;32.38;100956.78;4968909;28;20125;-57
2021/05/26 06:43:41;;;;;;;1.85;0.17;;;33.60;37.60;;;27.90;32.39;100960.28;4968537;28;20038;-57
2021/05/26 06:46:07;;;;;;;3.72;0.00;;;33.60;37.30;;;27.86;31.80;100962.69;4969240;28;20311;-54
2021/05/26 06:48:33;;;;;;;0.95;0.10;;;33.50;37.30;;;28.02;32.16;100961.00;4967784;28;20031;-56
2021/05/26 06:51:00;;;;;;;1.48;0.10;;;33.60;37.50;;;28.02;31.91;100963.66;4968665;28;20031;-53
2021/05/26 06:53:26;;;;;;;0.52;0.00;;;33.80;37.30;;;28.09;32.21;100961.63;4968186;28;20220;-55
2021/05/26 06:55:53;;;;;;;0.85;0.10;;;33.90;37.40;;;28.45;31.97;100964.75;4967486;28;20041;-53
2021/05/26 06:58:19;;;;;;;5.75;0.10;;;34.10;37.40;;;28.06;31.72;100962.13;4968265;28;20387;-50
2021/05/26 07:00:45;;;;;;;0.93;0.10;;;33.90;36.60;;;27.85;31.83;100963.72;4967668;28;20572;-50
2021/05/26 07:03:12;;;;;;;0.30;0.00;;;33.70;37.00;;;27.87;31.69;100966.97;4968799;28;20054;-41
2021/05/26 07:05:39;;;;;;;1.98;0.00;;;33.80;36.60;;;27.78;29.85;100968.44;4968029;28;20042;-39
2021/05/26 07:08:05;;;;;;;0.43;0.10;;;33.60;35.00;;;27.83;30.16;100962.34;4968269;28;20023;-39
2021/05/26 07:10:31;;;;;;;0.50;0.00;;;33.60;35.60;;;27.75;30.23;100963.59;4967678;28;20038;-53
2021/05/26 07:12:57;;;;;;;0.50;0.08;;;33.70;35.60;;;27.51;30.23;100964.78;4967655;28;20041;-51
2021/05/26 07:15:24;;;;;;;0.25;0.10;;;33.20;35.90;;;26.21;31.90;100965.59;4968983;28;20030;-52
2021/05/26 07:17:50;;;;;;;0.60;0.10;;;30.80;38.60;;;24.52;34.04;100965.19;4966181;28;20069;-50
2021/05/26 07:20:16;;;;;;;0.52;0.08;;;27.70;42.10;;;23.44;36.67;100964.81;4968462;28;20039;-51
2021/05/26 07:22:42;;;;;;;0.52;0.03;;;25.80;45.40;;;22.91;37.57;100964.38;4967964;28;20030;-50
2021/05/26 07:25:09;;;;;;;1.25;0.10;;;24.60;47.30;;;22.30;37.92;100960.31;4967463;28;20061;-54
2021/05/26 07:27:36;;;;;;;0.47;0.00;;;23.70;47.90;;;21.83;38.59;100969.38;4960937;28;20077;-51
2021/05/26 07:30:04;;;;;;;0.32;0.00;;;23.00;48.90;;;21.79;39.57;100960.19;4967645;28;20046;-50
2021/05/26 07:32:29;;;;;;;0.75;0.10;;;22.80;50.40;;;21.93;39.48;100959.16;4957475;28;20058;-54
2021/05/26 07:34:55;;;;;;;0.93;0.00;;;22.70;50.80;;;21.55;40.11;100966.16;4964448;28;20494;-56
2021/05/26 07:37:21;;;;;;;0.55;0.00;;;22.40;50.80;;;21.27;40.40;100964.47;4965733;28;20556;-53
2021/05/26 07:39:47;;;;;;;2.08;0.10;;;22.10;51.50;;;21.12;39.87;100961.19;4964908;28;20556;-58
2021/05/26 07:42:14;;;;;;;0.55;0.10;;;21.90;51.20;;;20.95;39.16;100954.63;4966300;28;20047;-56
2021/05/26 07:44:40;;;;;;;2.05;0.10;;;21.60;50.60;;;20.84;39.07;100951.53;4965047;28;20598;-53
2021/05/26 07:47:06;;;;;;;0.57;0.10;;;21.50;50.70;;;20.75;39.51;100950.13;4966764;28;20049;-52
2021/05/26 07:49:32;;;;;;;0.68;0.10;;;21.40;51.00;;;20.87;39.81;100951.16;4967095;28;20375;-52
2021/05/26 07:52:08;;;;;;;0.95;0.10;;;21.50;51.60;;;20.68;39.48;100951.94;4968796;28;20102;-52
2021/05/26 07:54:34;;;;;;;1.55;0.10;;;21.40;51.40;;;20.91;40.65;100953.41;4967176;28;20034;-50
2021/05/26 07:57:01;;;;;;;0.65;0.10;;;21.30;53.00;;;21.04;39.25;100950.78;4968208;28;20035;-56
2021/05/26 07:59:27;;;;;;;0.40;0.10;;;21.50;51.70;;;21.07;39.71;100958.31;4946576;28;20451;-55
2021/05/26 08:01:53;;;;;;;2.40;0.10;;;21.60;52.10;;;20.90;40.24;100949.94;4966403;28;20034;-57
2021/05/26 08:04:20;;;;;;;0.80;0.15;;;21.50;52.20;;;21.13;39.71;100952.22;4944815;28;20133;-57
2021/05/26 08:06:47;;;;;;;0.45;0.00;;;21.60;51.90;;;21.40;39.65;100947.78;4966354;28;20118;-50
2021/05/26 08:09:13;;;;;;;1.45;0.10;;;21.70;52.50;;;21.64;39.52;100933.91;4965179;28;20472;-53
2021/05/26 08:11:40;;;;;;;4.60;0.20;;;22.10;52.40;;;21.83;39.57;100940.19;4970720;28;20087;-57
2021/05/26 08:14:06;;;;;;;0.45;0.05;;;22.30;52.40;;;21.92;39.25;100941.63;4962585;28;20423;-55
2021/05/26 08:16:32;;;;;;;2.83;0.10;;;22.40;51.90;;;22.01;39.50;100932.44;4967545;28;20042;-55
2021/05/26 08:18:58;;;;;;;0.30;0.10;;;22.40;51.90;;;22.23;39.05;100927.66;4968540;28;20073;-51
2021/05/26 08:21:24;;;;;;;3.28;0.65;;;22.70;51.80;;;22.12;38.95;100929.16;4967152;28;20034;-51
2021/05/26 08:23:51;;;;;;;0.38;0.10;;;22.70;51.40;;;22.08;39.13;100935.91;4970964;28;20034;-52
2021/05/26 08:26:21;;;;;;;1.08;0.10;;;22.60;51.50;;;22.25;39.93;100935.41;4970564;28;20459;-52
2021/05/26 08:28:48;;;;;;;1.02;0.10;;;22.70;52.80;;;22.32;39.75;100936.22;4953809;28;20548;-55
2021/05/26 08:31:14;;;;;;;1.88;0.13;;;22.70;52.50;;;22.13;38.92;100932.63;4971152;28;20339;-54
2021/05/26 08:33:41;;;;;;;1.60;0.10;;;22.70;51.60;;;22.29;38.84;100926.81;4969718;28;20039;-53
2021/05/26 08:36:08;;;;;;;0.20;0.00;;;22.80;51.70;;;22.49;37.88;100927.56;4970988;28;20058;-51
2021/05/26 08:38:35;;;;;;;1.70;0.10;;;22.90;50.90;;;22.25;38.59;100930.13;4970294;28;20031;-51
2021/05/26 08:41:10;;;;;;;0.70;0.10;;;22.80;51.10;;;22.39;38.81;100932.50;4970476;28;20062;-54
2021/05/26 08:43:41;;;;;;;1.95;0.10;;;22.70;52.40;;;22.51;38.52;100925.53;4970124;28;20054;-45
2021/05/26 08:46:09;;;;;;;0.57;0.10;;;22.90;51.50;;;22.79;38.27;100919.88;4971752;28;20119;-56
2021/05/26 08:48:36;;;;;;;0.65;0.10;;;23.10;51.70;;;22.47;38.56;100926.97;4969418;28;20030;-50
2021/05/26 08:51:06;;;;;;;0.70;0.10;;;23.10;51.00;;;22.24;38.92;100918.69;4969940;28;20027;-50
2021/05/26 08:53:34;;;;;;;0.85;0.00;;;22.80;51.70;;;22.33;38.68;100924.56;4949898;28;20065;-51
2021/05/26 08:56:00;;;;;;;1.58;0.10;;;22.70;51.80;;;22.49;38.53;100916.94;4967499;28;20030;-55
2021/05/26 08:58:27;;;;;;;1.08;0.10;;;22.90;51.80;;;22.29;38.43;100918.06;4971395;28;20069;-52
2021/05/26 09:00:53;;;;;;;0.85;0.00;;;22.70;51.30;;;22.34;37.42;100918.25;4971022;28;20047;-50
2021/05/26 09:03:19;;;;;;;1.90;0.08;;;22.70;50.40;;;22.31;38.38;100913.34;4970839;28;20534;-52
2021/05/26 09:05:53;;;;;;;1.80;0.30;;;22.60;51.90;;;22.25;37.80;100917.66;4970860;28;20039;-54
2021/05/26 09:08:21;;;;;;;0.43;0.10;;;22.60;51.30;;;22.44;36.91;100918.59;4964444;28;20486;-50
2021/05/26 09:10:51;;;;;;;2.67;0.10;;;22.80;50.40;;;22.74;37.34;100909.03;4969822;28;20039;-54
2021/05/26 09:13:30;;;;;;;1.95;0.10;;;23.00;51.40;;;22.97;37.15;100907.72;4962905;28;20041;-54
2021/05/26 09:15:57;;;;;;;0.55;0.10;;;23.10;50.90;;;23.15;36.73;100900.63;4969848;28;20394;-50
2021/05/26 09:18:24;;;;;;;2.47;0.10;;;23.50;50.70;;;22.97;36.37;100907.72;4968108;28;20031;-54
2021/05/26 09:20:50;;;;;;;3.60;0.10;;;23.50;49.70;;;23.35;36.60;100894.31;4958525;28;20134;-54
2021/05/26 09:23:32;;;;;;;2.72;0.10;;;23.60;50.50;;;23.42;37.04;100889.75;4966332;28;20490;-55
2021/05/26 09:26:00;;;;;;;1.65;0.10;;;23.70;50.90;;;23.58;36.28;100891.09;4965903;28;20030;-53
2021/05/26 09:28:34;;;;;;;0.77;0.10;;;23.80;50.30;;;23.24;35.85;100893.19;4965048;28;20043;-56
2021/05/26 09:31:06;;;;;;;1.60;0.13;;;23.70;49.30;;;23.26;36.66;100892.97;4964346;28;20146;-49
2021/05/26 09:33:50;;;;;;;1.55;0.10;;;23.60;50.20;;;23.11;37.59;100882.69;4962801;28;20049;-46
2021/05/26 09:36:27;;;;;;;2.80;0.10;;;23.60;50.80;;;23.16;37.96;100880.16;4968825;28;20039;-54
2021/05/26 09:38:59;;;;;;;1.13;0.10;;;23.50;51.40;;;22.96;37.42;100885.66;4964662;28;20039;-56
2021/05/26 09:41:33;;;;;;;0.55;0.10;;;23.40;50.70;;;23.53;36.79;100880.25;4967323;28;20034;-48
2021/05/26 09:44:10;;;;;;;0.60;0.10;;;23.70;51.70;;;22.81;36.57;100885.94;4964528;28;20089;-53
2021/05/26 09:46:43;;;;;;;0.98;0.03;;;23.50;49.70;;;22.82;37.01;100878.78;4968376;28;20042;-55
2021/05/26 09:49:19;;;;;;;2.47;0.10;;;23.30;50.10;;;23.59;36.55;100868.78;4969183;28;20038;-51
2021/05/26 09:51:55;;;;;;;2.72;0.10;;;23.60;50.70;;;23.92;36.13;100873.72;4960358;28;20049;-57
2021/05/26 09:54:29;;;;;;;0.38;0.10;;;24.00;50.40;;;23.79;35.17;100869.34;4964270;28;20037;-49
2021/05/26 09:57:15;;;;;;;5.43;0.97;;;24.10;49.60;;;23.68;36.24;100862.91;4963318;28;20042;-57
2021/05/26 09:59:43;;;;;;;2.53;0.20;;;24.10;49.40;;;23.49;35.68;100859.41;4960126;28;20077;-57
2021/05/26 10:02:10;;;;;;;1.35;0.10;;;24.00;48.70;;;23.13;35.75;100864.66;4947721;28;20484;-53
2021/05/26 10:04:41;;;;;;;1.55;0.10;;;23.50;48.60;;;23.18;35.32;100862.16;4948604;28;20046;-54
2021/05/26 10:07:08;;;;;;;1.10;0.10;;;23.40;49.10;;;22.75;35.23;100854.88;4968686;28;20051;-55
2021/05/26 10:09:35;;;;;;;1.58;0.10;;;23.20;48.20;;;23.38;35.37;100849.50;4949267;28;20053;-56
2021/05/26 10:12:02;;;;;;;0.63;0.05;;;23.50;49.30;;;23.54;34.72;100845.50;4968056;28;20035;-50
2021/05/26 10:14:30;;;;;;;0.50;0.10;;;23.70;48.60;;;23.77;35.20;100847.47;4969509;28;20039;-51
2021/05/26 10:16:56;;;;;;;1.30;0.10;;;23.90;49.10;;;23.88;34.45;100841.44;4952299;28;20058;-53
2021/05/26 10:19:26;;;;;;;2.78;0.10;;;24.20;48.20;;;23.67;34.65;100836.53;4969768;28;20081;-52